Time;durP1;ratioP1;P1;durP2;ratioP2;P2;SDS_P1;SDS_P2;PMS_P1;PMS_P2;Temp;Humidity;BMP_temperature;BMP_pressure;BME280_temperature;BME280_humidity;BME280_pressure;Samples;Min_cycle;Max_cycle;Signal;HPM_P1;HPM_P2
2023/11/09 00:00:48;;;;;;;1.33;0.70;;;;;;;14.80;42.30;98917.72;4983360;28;20052;-77
2023/11/09 00:03:14;;;;;;;0.60;0.50;;;;;;;14.77;42.18;98921.50;4983309;28;20117;-77
2023/11/09 00:05:39;;;;;;;1.85;0.50;;;;;;;14.80;42.21;98936.13;4983105;28;20033;-77
2023/11/09 00:08:05;;;;;;;0.75;0.50;;;;;;;14.75;42.35;98917.31;4998635;28;20045;-77
2023/11/09 00:10:31;;;;;;;0.93;0.55;;;;;;;14.79;42.24;98927.44;4982263;28;20108;-77
2023/11/09 00:12:58;;;;;;;0.95;0.50;;;;;;;14.75;42.31;98918.16;5016627;28;20466;-77
2023/11/09 00:15:26;;;;;;;1.63;0.50;;;;;;;14.70;42.06;98914.28;4982600;28;20073;-77
2023/11/09 00:17:52;;;;;;;0.63;0.43;;;;;;;14.69;41.93;98923.13;5016582;28;20022;-77
2023/11/09 00:20:17;;;;;;;0.70;0.47;;;;;;;14.67;41.79;98930.34;4983012;28;20044;-77
2023/11/09 00:22:46;;;;;;;0.98;0.50;;;;;;;14.62;42.03;98936.81;4998617;28;20062;-77
2023/11/09 00:25:12;;;;;;;;;;;;;;;14.62;41.94;98936.00;4967820;28;20095;-77
2023/11/09 00:27:37;;;;;;;1.13;0.40;;;;;;;14.58;41.74;98934.56;4981886;28;20296;-77
2023/11/09 00:30:04;;;;;;;1.90;0.50;;;;;;;14.57;41.81;98938.19;4982631;28;20042;-77
2023/11/09 00:32:29;;;;;;;1.17;0.60;;;;;;;14.55;41.85;98930.44;4982729;28;20040;-77
2023/11/09 00:34:55;;;;;;;1.20;0.40;;;;;;;14.52;41.86;98922.03;4981540;28;20042;-77
2023/11/09 00:37:22;;;;;;;0.90;0.50;;;;;;;14.47;41.66;98904.88;4998551;28;20045;-77
2023/11/09 00:39:47;;;;;;;2.25;0.57;;;;;;;14.50;41.59;98927.41;4983153;28;20025;-77
2023/11/09 00:42:15;;;;;;;1.02;0.40;;;;;;;14.46;41.78;98928.63;4999051;28;20045;-77
2023/11/09 00:44:41;;;;;;;0.80;0.60;;;;;;;14.45;42.04;98940.94;4966084;28;20069;-77
2023/11/09 00:47:07;;;;;;;2.67;0.40;;;;;;;14.43;41.76;98936.78;4998332;28;20521;-77
2023/11/09 00:49:32;;;;;;;4.13;0.40;;;;;;;14.45;41.92;98929.59;4982278;28;20068;-78
2023/11/09 00:51:58;;;;;;;0.70;0.40;;;;;;;14.46;41.58;98942.59;4998344;28;20041;-77
2023/11/09 00:54:23;;;;;;;1.25;0.50;;;;;;;14.46;41.80;98953.09;4981993;28;20030;-77
2023/11/09 00:56:48;;;;;;;2.85;0.50;;;;;;;14.40;41.87;98939.69;4981825;28;20038;-77
2023/11/09 00:59:14;;;;;;;0.95;0.52;;;;;;;14.40;41.72;98926.56;4998324;28;20033;-77
2023/11/09 01:01:40;;;;;;;1.25;0.50;;;;;;;14.39;41.80;98938.03;4981308;28;20041;-76
2023/11/09 01:04:05;;;;;;;2.15;0.50;;;;;;;14.35;41.64;98941.91;4982078;28;20064;-77
2023/11/09 01:06:32;;;;;;;0.55;0.30;;;;;;;14.34;41.73;98948.94;4981037;28;20037;-76
2023/11/09 01:08:58;;;;;;;0.65;0.40;;;;;;;14.34;42.00;98943.69;4998155;28;20029;-76
2023/11/09 01:11:24;;;;;;;0.60;0.25;;;;;;;14.36;41.67;98954.03;4981339;28;20073;-76
2023/11/09 01:13:49;;;;;;;1.80;0.60;;;;;;;14.33;41.78;98943.81;4982027;28;20441;-76
2023/11/09 01:16:15;;;;;;;0.40;0.35;;;;;;;14.33;41.76;98956.94;4997361;28;20042;-76
2023/11/09 01:18:41;;;;;;;0.50;0.40;;;;;;;14.30;41.83;98944.94;4981766;28;20033;-76
2023/11/09 01:21:06;;;;;;;2.38;0.40;;;;;;;14.29;41.51;98959.88;4981243;28;20045;-75
2023/11/09 01:23:32;;;;;;;0.70;0.40;;;;;;;14.25;41.48;98947.97;4997776;28;20065;-76
2023/11/09 01:25:57;;;;;;;0.52;0.30;;;;;;;14.25;41.46;98947.16;4981649;28;20041;-76
2023/11/09 01:28:23;;;;;;;0.93;0.50;;;;;;;14.21;41.38;98935.25;4997700;28;20030;-76
2023/11/09 01:30:48;;;;;;;2.38;0.32;;;;;;;14.17;41.29;98929.44;4997187;28;20034;-76
2023/11/09 01:33:14;;;;;;;0.55;0.43;;;;;;;14.15;41.13;98933.97;4980639;28;20045;-77
2023/11/09 01:35:39;;;;;;;0.80;0.40;;;;;;;14.13;41.20;98932.47;4997203;28;20068;-77
2023/11/09 01:38:05;;;;;;;2.30;0.47;;;;;;;14.10;41.02;98947.53;4980751;28;20504;-77
2023/11/09 01:40:33;;;;;;;1.02;0.50;;;;;;;14.09;40.88;98937.97;4981238;28;20164;-76
2023/11/09 01:42:59;;;;;;;1.13;0.30;;;;;;;14.10;40.94;98944.06;4981290;28;20138;-76
2023/11/09 01:45:24;;;;;;;3.05;0.40;;;;;;;14.09;40.96;98945.84;4981121;28;20038;-76
2023/11/09 01:47:52;;;;;;;1.00;0.43;;;;;;;14.05;40.85;98939.19;4981073;28;20393;-76
2023/11/09 01:50:17;;;;;;;0.50;0.35;;;;;;;14.10;40.87;98957.19;4980965;28;20108;-76
2023/11/09 01:52:43;;;;;;;0.75;0.40;;;;;;;14.03;40.96;98961.31;4996998;28;20039;-76
2023/11/09 01:55:08;;;;;;;0.93;0.40;;;;;;;14.02;40.79;98957.84;4997007;28;20041;-78
2023/11/09 01:57:34;;;;;;;1.25;0.50;;;;;;;14.02;40.93;98957.03;4981108;28;20041;-76
2023/11/09 01:59:59;;;;;;;0.77;0.50;;;;;;;13.96;40.67;98954.94;4980576;28;20076;-76
2023/11/09 02:02:25;;;;;;;1.23;0.50;;;;;;;13.94;40.81;98963.75;4980563;28;20485;-76
2023/11/09 02:04:50;;;;;;;1.30;0.52;;;;;;;13.86;40.89;98968.03;4980432;28;20528;-75
2023/11/09 02:07:16;;;;;;;1.02;0.55;;;;;;;13.88;40.73;98979.22;4980524;28;20100;-75
2023/11/09 02:09:42;;;;;;;1.05;0.40;;;;;;;13.86;40.62;98978.50;4980378;28;20057;-76
2023/11/09 02:12:08;;;;;;;1.25;0.40;;;;;;;13.88;40.57;98987.94;4964312;28;20468;-76
2023/11/09 02:14:34;;;;;;;0.63;0.40;;;;;;;13.85;40.76;98993.44;4980176;28;20061;-76
2023/11/09 02:17:00;;;;;;;1.05;0.50;;;;;;;13.80;40.47;98985.09;4980575;28;20038;-76
2023/11/09 02:19:26;;;;;;;1.48;0.50;;;;;;;13.84;40.42;98990.94;4980228;28;20030;-75
2023/11/09 02:21:51;;;;;;;0.65;0.50;;;;;;;13.82;40.62;98982.34;4980569;28;20049;-76
2023/11/09 02:24:19;;;;;;;0.98;0.47;;;;;;;13.81;40.30;98997.28;4980698;28;20501;-76
2023/11/09 02:26:44;;;;;;;0.95;0.43;;;;;;;13.81;40.30;98999.91;4980991;28;20029;-76
2023/11/09 02:29:10;;;;;;;0.70;0.40;;;;;;;13.81;40.20;99004.31;4980385;28;20390;-76
2023/11/09 02:31:36;;;;;;;1.00;0.55;;;;;;;13.80;40.11;99011.34;5013973;28;20112;-76
2023/11/09 02:34:02;;;;;;;0.80;0.40;;;;;;;13.75;40.17;98998.63;4979740;28;20053;-76
2023/11/09 02:36:29;;;;;;;0.55;0.40;;;;;;;13.72;40.12;99004.13;4964005;28;20030;-76
2023/11/09 02:38:55;;;;;;;1.10;0.45;;;;;;;13.77;40.13;99016.03;4996014;28;20028;-78
2023/11/09 02:41:20;;;;;;;0.65;0.30;;;;;;;13.72;40.09;99026.91;4996430;28;20405;-76
2023/11/09 02:43:46;;;;;;;0.52;0.40;;;;;;;13.71;39.66;99023.47;4980082;28;20025;-76
2023/11/09 02:46:11;;;;;;;0.60;0.30;;;;;;;13.70;39.55;99032.28;4996284;28;20128;-76
2023/11/09 02:48:38;;;;;;;0.75;0.40;;;;;;;13.68;39.69;99033.41;4979877;28;20057;-76
2023/11/09 02:51:07;;;;;;;2.00;0.30;;;;;;;13.66;39.65;99024.81;4963593;28;20030;-76
2023/11/09 02:53:32;;;;;;;1.02;0.50;;;;;;;13.68;39.69;99043.91;4979001;28;20096;-76
2023/11/09 02:55:58;;;;;;;0.73;0.50;;;;;;;13.67;39.74;99037.78;4963027;28;20076;-76
2023/11/09 02:58:23;;;;;;;1.70;0.40;;;;;;;13.66;39.77;99051.03;4979542;28;20033;-76
2023/11/09 03:00:49;;;;;;;0.55;0.22;;;;;;;13.67;39.43;99050.09;4979292;28;20030;-76
2023/11/09 03:03:15;;;;;;;1.10;0.50;;;;;;;13.66;39.35;99054.50;4979700;28;20033;-76
2023/11/09 03:05:41;;;;;;;3.20;1.52;;;;;;;13.62;39.57;99052.28;4963966;28;20033;-76
2023/11/09 03:08:06;;;;;;;4.78;2.60;;;;;;;13.59;39.54;99050.72;4995723;28;20025;-76
2023/11/09 03:10:32;;;;;;;9.40;5.50;;;;;;;13.64;39.71;99066.09;4979234;28;20390;-76
2023/11/09 03:13:00;;;;;;;12.43;6.95;;;;;;;13.60;39.80;99054.19;4995410;28;20041;-76
2023/11/09 03:15:26;;;;;;;10.70;6.13;;;;;;;13.59;39.54;99071.72;4995969;28;20105;-76
2023/11/09 03:17:51;;;;;;;13.23;5.95;;;;;;;13.60;39.70;99076.00;4995807;28;20033;-77
2023/11/09 03:20:17;;;;;;;9.65;5.50;;;;;;;13.61;39.55;99090.78;4979735;28;20084;-76
2023/11/09 03:22:44;;;;;;;11.27;4.82;;;;;;;13.58;39.79;99091.03;4976099;28;20089;-76
2023/11/09 03:25:10;;;;;;;8.13;4.28;;;;;;;13.52;39.73;99081.91;4974972;28;20042;-77
2023/11/09 03:27:35;;;;;;;5.85;3.80;;;;;;;13.53;39.75;99093.22;4976404;28;20030;-77
2023/11/09 03:30:01;;;;;;;6.45;3.33;;;;;;;13.52;39.88;99087.13;4976150;28;20556;-77
2023/11/09 03:32:26;;;;;;;5.43;3.40;;;;;;;13.49;39.78;99091.78;4992002;28;20034;-76
2023/11/09 03:34:52;;;;;;;6.68;2.75;;;;;;;13.41;40.09;99081.97;4960033;28;20068;-77
2023/11/09 03:37:17;;;;;;;5.35;2.58;;;;;;;13.38;40.21;99088.28;4975361;28;20038;-76
2023/11/09 03:39:43;;;;;;;4.20;2.05;;;;;;;13.37;40.46;99102.34;4975951;28;20426;-77
2023/11/09 03:42:08;;;;;;;3.63;2.10;;;;;;;13.37;40.66;99106.75;4975978;28;20097;-76
2023/11/09 03:44:39;;;;;;;3.53;1.80;;;;;;;13.31;40.46;99110.66;4960137;28;20045;-78
2023/11/09 03:47:05;;;;;;;3.15;1.38;;;;;;;13.24;40.78;99116.56;4975604;28;20039;-77
2023/11/09 03:49:31;;;;;;;2.53;1.30;;;;;;;13.18;40.90;99112.63;4976106;28;20045;-78
2023/11/09 03:51:56;;;;;;;1.98;1.08;;;;;;;13.18;41.33;99117.88;4976283;28;20038;-77
2023/11/09 03:54:22;;;;;;;2.45;0.95;;;;;;;13.14;41.22;99113.81;4975968;28;20406;-77
2023/11/09 03:56:47;;;;;;;2.42;1.13;;;;;;;13.11;41.31;99116.69;4991341;28;20038;-77
2023/11/09 03:59:13;;;;;;;1.27;0.80;;;;;;;13.10;41.63;99118.50;4975187;28;20034;-77
2023/11/09 04:01:38;;;;;;;1.65;0.88;;;;;;;13.03;41.57;99122.59;4975290;28;20124;-76
2023/11/09 04:04:06;;;;;;;2.95;0.90;;;;;;;13.02;42.05;99131.38;4975592;28;20030;-77
2023/11/09 04:06:34;;;;;;;1.58;0.75;;;;;;;13.00;41.93;99126.25;4992438;28;20057;-77
2023/11/09 04:09:00;;;;;;;2.45;0.80;;;;;;;12.96;41.96;99134.50;4975549;28;20632;-77
2023/11/09 04:11:26;;;;;;;2.15;0.60;;;;;;;12.93;42.12;99135.56;4975996;28;20082;-77
2023/11/09 04:13:53;;;;;;;1.73;0.55;;;;;;;12.84;42.26;99121.41;4975470;28;20041;-77
2023/11/09 04:16:18;;;;;;;1.48;0.35;;;;;;;12.85;42.33;99123.06;4991083;28;20042;-77
2023/11/09 04:18:44;;;;;;;3.30;0.63;;;;;;;12.81;42.54;99119.03;4992735;28;20037;-77
2023/11/09 04:21:10;;;;;;;0.80;0.50;;;;;;;12.76;42.71;99115.09;4993667;28;20481;-78
2023/11/09 04:23:38;;;;;;;2.55;0.60;;;;;;;12.76;42.79;99130.81;4963502;28;20485;-77
2023/11/09 04:26:08;;;;;;;1.27;0.55;;;;;;;12.70;42.85;99139.16;4963278;28;20042;-78
2023/11/09 04:28:35;;;;;;;0.75;0.50;;;;;;;12.68;42.86;99139.28;4982099;28;20022;-79
2023/11/09 04:31:00;;;;;;;2.38;0.50;;;;;;;12.65;42.73;99145.63;4976423;28;20482;-78
2023/11/09 04:33:27;;;;;;;1.52;0.32;;;;;;;12.63;42.71;99150.16;4958956;28;20042;-80
2023/11/09 04:35:55;;;;;;;0.77;0.47;;;;;;;12.57;42.79;99140.16;4976822;28;20034;-78
2023/11/09 04:38:24;;;;;;;0.73;0.40;;;;;;;12.56;42.53;99138.47;4967433;28;20120;-77
2023/11/09 04:41:03;;;;;;;0.57;0.38;;;;;;;12.57;42.44;99142.78;4966619;28;20029;-87
2023/11/09 04:43:29;;;;;;;1.65;0.70;;;;;;;12.58;42.49;99143.59;5001060;28;20116;-74
2023/11/09 04:46:01;;;;;;;1.48;0.50;;;;;;;12.53;42.59;99137.91;5015615;28;20117;-75
2023/11/09 04:48:31;;;;;;;1.52;0.70;;;;;;;12.54;42.72;99158.72;4978065;28;20048;-76
2023/11/09 04:51:01;;;;;;;1.33;0.57;;;;;;;12.54;42.98;99170.97;4982104;28;20096;-75
2023/11/09 04:53:31;;;;;;;3.97;1.40;;;;;;;12.97;63.84;99171.06;4998642;28;20096;-77
2023/11/09 04:56:07;;;;;;;8.05;1.30;;;;;;;13.61;63.63;99181.75;4998764;28;20465;-75
2023/11/09 04:58:50;;;;;;;2.67;1.08;;;;;;;13.57;57.38;99170.69;4999361;28;20032;-75
2023/11/09 05:06:55;;;;;;;5.03;1.10;;;;;;;13.35;61.90;99161.13;4916072;29;20052;-79
2023/11/09 05:09:23;;;;;;;4.90;1.00;;;;;;;13.39;56.53;99165.13;4916670;29;20499;-75
2023/11/09 05:11:49;;;;;;;1.58;0.90;;;;;;;13.36;53.37;99189.84;4886227;29;20048;-78
2023/11/09 05:14:15;;;;;;;5.03;1.10;;;;;;;13.32;52.06;99182.31;4901361;29;20187;-79
2023/11/09 05:16:40;;;;;;;7.22;0.95;;;;;;;13.44;51.04;99210.19;4900450;29;20119;-79
2023/11/09 05:19:06;;;;;;;2.08;0.80;;;;;;;13.50;49.73;99209.69;4885648;29;20033;-74
2023/11/09 05:21:31;;;;;;;1.80;0.80;;;;;;;13.56;48.93;99206.56;4901093;29;20152;-75
2023/11/09 05:23:57;;;;;;;2.13;0.82;;;;;;;13.67;47.85;99202.25;4916375;29;20052;-75
2023/11/09 05:26:25;;;;;;;3.35;1.92;;;;;;;13.77;47.06;99210.19;4885360;29;20036;-74
2023/11/09 05:28:51;;;;;;;13.40;6.00;;;;;;;13.85;46.50;99210.38;4901146;29;20032;-74
2023/11/09 05:31:17;;;;;;;12.50;6.63;;;;;;;14.02;45.41;99222.94;4916154;29;20447;-74
2023/11/09 05:33:44;;;;;;;16.13;8.20;;;;;;;14.23;44.73;99227.38;4900683;29;20032;-75
2023/11/09 05:36:10;;;;;;;16.25;8.73;;;;;;;14.50;43.96;99221.59;4884952;29;20048;-74
2023/11/09 05:38:36;;;;;;;14.30;8.13;;;;;;;14.81;42.94;99238.22;4916036;29;20028;-74
2023/11/09 05:41:01;;;;;;;13.98;6.68;;;;;;;15.22;42.21;99247.91;4884720;29;20127;-76
2023/11/09 05:43:27;;;;;;;9.68;5.57;;;;;;;15.69;40.77;99243.72;4944269;28;20505;-73
2023/11/09 05:45:53;;;;;;;9.20;5.13;;;;;;;16.23;39.63;99246.75;4995356;28;20475;-75
2023/11/09 05:48:19;;;;;;;7.68;3.95;;;;;;;16.76;38.51;99247.19;4976721;28;20065;-74
2023/11/09 05:50:44;;;;;;;6.63;3.42;;;;;;;17.40;37.13;99258.72;4961211;28;20066;-74
2023/11/09 05:53:10;;;;;;;4.57;2.35;;;;;;;18.07;35.68;99275.09;4961419;28;20034;-73
2023/11/09 05:55:35;;;;;;;5.55;2.28;;;;;;;18.74;34.06;99269.28;4977376;28;20030;-73
2023/11/09 05:58:01;;;;;;;3.50;2.00;;;;;;;19.42;32.31;99272.91;4960954;28;20023;-74
2023/11/09 06:00:27;;;;;;;4.72;1.92;;;;;;;20.09;30.76;99269.41;4961667;28;20049;-75
2023/11/09 06:02:53;;;;;;;3.20;1.40;;;;;;;20.72;29.31;99267.88;4977236;28;20048;-74
2023/11/09 06:05:18;;;;;;;2.05;1.00;;;;;;;21.50;27.66;99270.75;4945204;28;20034;-74
2023/11/09 06:07:44;;;;;;;2.45;0.98;;;;;;;22.36;26.44;99281.28;4961116;28;20026;-73
2023/11/09 06:10:11;;;;;;;3.08;1.00;;;;;;;23.19;24.97;99282.09;4944815;28;20526;-73
2023/11/09 06:12:37;;;;;;;1.20;0.60;;;;;;;24.15;23.52;99289.13;4987355;28;20168;-76
2023/11/09 06:15:03;;;;;;;2.17;0.88;;;;;;;25.12;22.60;99281.38;4997020;28;20069;-75
2023/11/09 06:17:29;;;;;;;2.72;0.90;;;;;;;26.05;20.99;99283.56;4980512;28;20045;-74
2023/11/09 06:19:58;;;;;;;1.73;0.70;;;;;;;27.01;20.33;99276.88;4980139;28;20038;-75
2023/11/09 06:22:23;;;;;;;2.80;0.50;;;;;;;28.00;19.08;99290.06;4980536;28;20115;-76
2023/11/09 06:24:49;;;;;;;3.20;0.95;;;;;;;28.77;18.11;99293.34;4980190;28;20493;-73
2023/11/09 06:27:16;;;;;;;2.20;0.90;;;;;;;29.51;17.64;99287.94;4979300;28;20552;-75
2023/11/09 06:29:41;;;;;;;1.92;0.80;;;;;;;30.13;22.61;99282.28;5020521;28;20493;-82
2023/11/09 06:32:07;;;;;;;2.38;0.65;;;;;;;30.79;21.70;99284.94;4975352;28;20049;-81
2023/11/09 06:34:35;;;;;;;20.35;2.22;;;;;;;31.38;19.91;99287.50;4961528;28;20117;-87
2023/11/09 06:37:01;;;;;;;19.02;1.85;;;;;;;31.98;18.60;99289.97;4980141;28;20538;-88
2023/11/09 06:39:26;;;;;;;14.38;1.23;;;;;;;32.56;17.70;99294.13;4980112;28;20039;-88
2023/11/09 06:41:52;;;;;;;7.28;1.20;;;;;;;33.19;15.90;99302.03;4996686;28;20066;-89
2023/11/09 06:44:18;;;;;;;3.92;0.90;;;;;;;33.88;15.01;99293.31;4980682;28;20544;-89
2023/11/09 06:46:44;;;;;;;7.07;1.27;;;;;;;34.42;14.28;99286.19;5011627;28;20464;-88
2023/11/09 06:49:11;;;;;;;6.20;0.80;;;;;;;34.64;14.16;99272.50;4986812;28;20461;-85
2023/11/09 06:51:36;;;;;;;7.20;1.17;;;;;;;34.71;13.69;99289.34;5003602;28;20029;-81
2023/11/09 06:54:03;;;;;;;6.50;1.00;;;;;;;34.55;14.66;99288.44;4995567;28;20041;-83
2023/11/09 06:56:33;;;;;;;5.88;0.95;;;;;;;33.94;14.66;99296.06;4979249;28;20041;-79
2023/11/09 06:59:03;;;;;;;11.13;1.00;;;;;;;33.34;16.17;99293.28;4980124;28;20551;-74
2023/11/09 07:01:31;;;;;;;3.65;0.93;;;;;;;33.02;17.27;99298.53;5013071;28;20029;-75
2023/11/09 07:03:56;;;;;;;5.15;0.80;;;;;;;32.60;17.75;99299.84;5013262;28;20041;-77
2023/11/09 07:06:22;;;;;;;5.53;0.60;;;;;;;32.23;17.41;99306.59;4963098;28;20030;-76
2023/11/09 07:08:49;;;;;;;3.35;0.80;;;;;;;31.97;17.69;99296.41;5011107;28;20105;-76
2023/11/09 07:11:15;;;;;;;4.60;0.85;;;;;;;31.85;17.74;99294.59;4970251;28;20109;-76
2023/11/09 07:13:41;;;;;;;6.97;1.27;;;;;;;31.79;18.14;99303.66;4975968;28;20041;-75
2023/11/09 07:16:07;;;;;;;2.92;1.00;;;;;;;31.59;18.61;99306.78;4959016;28;20042;-76
2023/11/09 07:18:33;;;;;;;4.78;1.15;;;;;;;31.50;18.75;99316.28;4959592;28;20026;-76
2023/11/09 07:20:58;;;;;;;4.18;1.60;;;;;;;31.29;19.44;99313.19;4959602;28;20481;-78
2023/11/09 07:23:24;;;;;;;4.32;1.33;;;;;;;31.16;20.16;99311.59;4974572;28;20540;-75
2023/11/09 07:25:51;;;;;;;6.05;1.80;;;;;;;31.12;20.35;99318.53;4979249;28;20034;-76
2023/11/09 07:28:17;;;;;;;4.93;2.10;;;;;;;31.07;20.18;99317.59;4978545;28;20029;-77
2023/11/09 07:30:47;;;;;;;7.28;1.50;;;;;;;31.06;19.98;99315.94;4975064;28;20037;-77
2023/11/09 07:33:14;;;;;;;5.55;1.75;;;;;;;30.98;19.96;99319.81;4960705;28;20413;-77
2023/11/09 07:35:39;;;;;;;10.80;4.07;;;;;;;31.01;19.65;99322.06;4963165;28;20030;-80
2023/11/09 07:38:06;;;;;;;7.63;1.90;;;;;;;31.11;19.98;99324.97;4962982;28;20464;-80
2023/11/09 07:40:33;;;;;;;6.05;1.98;;;;;;;31.15;20.46;99318.06;4993933;28;20060;-78
2023/11/09 07:42:59;;;;;;;8.15;1.67;;;;;;;31.19;20.28;99319.22;5012940;28;20026;-77
2023/11/09 07:45:25;;;;;;;6.82;1.75;;;;;;;31.16;20.22;99318.88;4978113;28;20040;-79
2023/11/09 07:47:51;;;;;;;4.43;1.40;;;;;;;31.19;20.29;99313.81;4979510;28;20029;-78
2023/11/09 07:50:17;;;;;;;6.20;1.50;;;;;;;31.21;20.03;99327.88;4979191;28;20421;-80
2023/11/09 07:52:43;;;;;;;11.95;1.50;;;;;;;31.24;19.79;99323.91;4961021;28;20049;-78
2023/11/09 07:55:10;;;;;;;7.78;1.20;;;;;;;31.31;19.58;99324.59;4979074;28;20037;-80
2023/11/09 07:57:36;;;;;;;5.97;1.30;;;;;;;31.38;20.28;99327.16;4961404;28;20480;-75
2023/11/09 08:00:04;;;;;;;13.48;1.70;;;;;;;31.41;19.99;99323.97;4970068;28;20030;-74
2023/11/09 08:02:30;;;;;;;6.10;1.75;;;;;;;31.41;20.15;99325.81;4993411;28;20117;-78
2023/11/09 08:04:57;;;;;;;9.65;2.25;;;;;;;31.34;20.56;99325.97;4964100;28;20034;-80
2023/11/09 08:07:23;;;;;;;4.50;2.78;;;;;;;30.91;18.40;99327.22;4984114;28;20031;-81
2023/11/09 08:09:49;;;;;;;8.77;4.65;;;;;;;30.59;19.62;99327.56;4980620;28;20034;-77
2023/11/09 08:12:15;;;;;;;8.85;3.00;;;;;;;29.99;18.83;99336.59;4964026;28;20507;-79
2023/11/09 08:14:40;;;;;;;7.95;3.30;;;;;;;29.66;19.78;99330.56;4992342;28;20022;-80
2023/11/09 08:17:08;;;;;;;11.10;5.10;;;;;;;29.36;19.85;99336.72;4979618;28;20030;-79
2023/11/09 08:19:34;;;;;;;7.05;4.75;;;;;;;28.73;19.30;99345.03;4974378;28;20065;-80
2023/11/09 08:22:00;;;;;;;11.20;5.57;;;;;;;28.24;22.12;99332.19;4996025;28;20076;-81
2023/11/09 08:24:26;;;;;;;12.30;4.45;;;;;;;27.97;19.52;99340.44;5005957;28;20088;-80
2023/11/09 08:26:51;;;;;;;8.82;3.88;;;;;;;27.96;21.19;99336.09;4993026;28;20530;-80
2023/11/09 08:29:17;;;;;;;6.07;2.67;;;;;;;28.23;20.09;99340.44;4990290;28;20030;-81
2023/11/09 08:31:43;;;;;;;5.88;3.33;;;;;;;28.37;20.45;99350.06;4990913;28;20066;-81
2023/11/09 08:34:10;;;;;;;4.30;2.13;;;;;;;28.31;18.47;99349.06;4969896;28;20126;-82
2023/11/09 08:36:36;;;;;;;6.37;2.73;;;;;;;28.21;20.15;99348.75;4975894;28;20042;-81
2023/11/09 08:39:02;;;;;;;5.93;2.92;;;;;;;28.26;19.44;99346.22;4972588;28;20045;-80
2023/11/09 08:41:29;;;;;;;4.97;2.15;;;;;;;28.21;19.53;99338.00;4966085;28;20032;-85
2023/11/09 08:43:55;;;;;;;5.72;2.60;;;;;;;28.44;20.54;99353.50;4980678;28;20034;-80
2023/11/09 08:46:21;;;;;;;7.10;2.25;;;;;;;29.00;19.41;99354.50;4984879;28;20084;-83
2023/11/09 08:48:47;;;;;;;13.32;2.35;;;;;;;29.71;17.13;99357.59;4976123;28;20473;-81
2023/11/09 08:51:14;;;;;;;8.30;1.80;;;;;;;30.64;16.47;99344.66;4992854;28;20034;-79
2023/11/09 08:53:40;;;;;;;3.83;2.10;;;;;;;31.39;16.48;99353.03;4998181;28;20030;-85
2023/11/09 08:56:06;;;;;;;4.95;2.30;;;;;;;32.54;14.63;99350.28;4963636;28;20038;-82
2023/11/09 08:58:36;;;;;;;3.38;1.52;;;;;;;33.41;13.36;99360.75;4982679;28;20041;-78
2023/11/09 09:01:06;;;;;;;10.85;1.92;;;;;;;34.05;12.67;99354.69;5016450;28;20037;-76
2023/11/09 09:03:33;;;;;;;8.27;1.83;;;;;;;34.75;11.99;99354.75;4962079;28;20425;-78
2023/11/09 09:05:59;;;;;;;5.38;2.20;;;;;;;35.41;11.92;99354.28;4962655;28;20112;-74
2023/11/09 09:08:26;;;;;;;2.47;1.55;;;;;;;34.94;12.40;99350.50;4946275;28;20584;-73
2023/11/09 09:10:55;;;;;;;7.93;2.22;;;;;;;34.03;13.39;99352.25;4961988;28;20045;-73
2023/11/09 09:13:26;;;;;;;5.60;2.17;;;;;;;32.58;13.98;99350.63;4962159;28;20045;-72
2023/11/09 09:15:53;;;;;;;4.38;1.73;;;;;;;30.71;16.11;99346.41;4962702;28;20447;-73
2023/11/09 09:18:20;;;;;;;5.28;2.17;;;;;;;29.74;16.27;99346.38;4962072;28;20034;-76
2023/11/09 09:20:45;;;;;;;4.35;2.13;;;;;;;28.54;17.78;99338.78;4979003;28;20038;-78
2023/11/09 09:23:11;;;;;;;6.78;1.70;;;;;;;28.15;18.40;99349.63;5003366;28;20056;-77
2023/11/09 09:25:38;;;;;;;7.78;1.90;;;;;;;28.32;19.00;99355.25;5015351;28;20030;-83
2023/11/09 09:28:04;;;;;;;8.52;2.13;;;;;;;29.27;20.10;99356.09;4965435;28;20025;-74
2023/11/09 09:30:29;;;;;;;5.07;2.13;;;;;;;30.23;19.84;99348.22;4997822;28;20545;-76
2023/11/09 09:32:55;;;;;;;4.57;1.60;;;;;;;30.70;18.85;99347.50;4976429;28;20112;-80
2023/11/09 09:35:23;;;;;;;3.35;1.17;;;;;;;31.12;18.61;99345.50;4961672;28;20128;-81
2023/11/09 09:37:50;;;;;;;2.20;1.15;;;;;;;31.24;17.63;99350.06;4968042;28;20157;-81
2023/11/09 09:40:16;;;;;;;6.20;1.35;;;;;;;31.42;16.85;99344.47;4978197;28;20088;-77
2023/11/09 09:42:52;;;;;;;2.15;1.00;;;;;;;31.46;16.56;99361.03;4990241;28;20039;-84
2023/11/09 09:45:18;;;;;;;3.13;0.82;;;;;;;31.47;16.67;99354.53;4977290;28;20407;-78
2023/11/09 09:47:50;;;;;;;6.80;1.10;;;;;;;31.61;16.32;99358.63;4977713;28;20034;-80
2023/11/09 09:50:22;;;;;;;2.78;0.75;;;;;;;31.72;16.16;99348.84;4977933;28;20023;-80
2023/11/09 09:52:50;;;;;;;3.78;1.25;;;;;;;31.49;15.89;99342.47;4994407;28;20383;-78
2023/11/09 09:55:18;;;;;;;2.35;0.93;;;;;;;31.69;15.61;99350.19;4961083;28;20030;-78
2023/11/09 09:57:44;;;;;;;4.68;0.90;;;;;;;31.59;15.95;99347.28;4961519;28;20546;-79
2023/11/09 10:00:23;;;;;;;4.63;1.17;;;;;;;31.64;15.43;99354.66;4977480;28;20046;-78
2023/11/09 10:02:49;;;;;;;4.18;1.10;;;;;;;31.71;15.72;99347.25;4993166;28;20096;-78
2023/11/09 10:05:14;;;;;;;4.35;1.05;;;;;;;31.62;16.00;99340.59;4994401;28;20030;-78
2023/11/09 10:08:02;;;;;;;9.43;1.40;;;;;;;31.44;16.07;99350.47;4960956;28;20045;-79
2023/11/09 10:10:32;;;;;;;2.65;1.15;;;;;;;31.21;16.17;99338.66;4994732;28;20022;-78
2023/11/09 10:12:58;;;;;;;3.70;1.00;;;;;;;31.00;15.91;99328.53;4961654;28;20062;-79
2023/11/09 10:15:26;;;;;;;3.67;1.33;;;;;;;31.00;16.52;99342.81;4977311;28;20431;-79
2023/11/09 10:17:53;;;;;;;3.20;1.10;;;;;;;30.92;16.75;99332.34;4977526;28;20033;-78
2023/11/09 10:20:18;;;;;;;3.50;1.20;;;;;;;30.73;16.54;99336.25;4977026;28;20480;-76
2023/11/09 10:22:44;;;;;;;5.70;1.25;;;;;;;30.49;16.78;99341.63;4993095;28;20054;-80
2023/11/09 10:25:12;;;;;;;3.75;1.00;;;;;;;30.23;16.40;99332.06;4976901;28;20030;-78
2023/11/09 10:27:38;;;;;;;2.25;0.90;;;;;;;30.06;17.21;99337.28;4977659;28;20054;-82
2023/11/09 10:30:06;;;;;;;2.55;0.90;;;;;;;30.00;17.61;99328.28;4960655;28;20366;-80
2023/11/09 10:32:35;;;;;;;1.92;0.63;;;;;;;29.96;17.39;99335.16;4960921;28;20082;-79
2023/11/09 10:35:03;;;;;;;4.07;1.30;;;;;;;29.80;17.47;99339.31;4976902;28;20038;-78
2023/11/09 10:37:29;;;;;;;5.45;1.05;;;;;;;29.63;17.22;99336.41;4992837;28;20405;-79
2023/11/09 10:39:57;;;;;;;3.15;0.90;;;;;;;29.36;17.21;99338.63;4976827;28;20476;-79
2023/11/09 10:42:24;;;;;;;;;;;;;;;29.29;17.34;99344.06;4977818;28;20092;-79
2023/11/09 10:44:52;;;;;;;3.20;1.02;;;;;;;29.09;17.72;99335.38;4976767;28;20006;-79
2023/11/09 10:47:24;;;;;;;3.95;1.10;;;;;;;28.76;17.30;99331.97;4993936;28;20039;-79
2023/11/09 10:49:53;;;;;;;4.05;1.05;;;;;;;28.66;17.62;99329.81;4976882;28;20031;-79
2023/11/09 10:52:21;;;;;;;2.47;1.10;;;;;;;28.54;17.58;99336.09;4960456;28;20042;-79
2023/11/09 10:54:50;;;;;;;3.03;1.08;;;;;;;28.42;17.70;99339.50;4960050;28;20100;-79
2023/11/09 10:57:18;;;;;;;3.25;0.90;;;;;;;28.29;17.79;99329.69;4976621;28;20056;-80
2023/11/09 10:59:48;;;;;;;;;;;;;;;28.17;17.82;99331.41;4960573;28;20044;-80
2023/11/09 11:02:19;;;;;;;2.78;0.98;;;;;;;27.90;18.13;99328.06;4977335;28;19937;-82
2023/11/09 11:04:50;;;;;;;4.97;1.02;;;;;;;27.60;18.23;99324.09;4976142;28;20045;-81
2023/11/09 11:07:21;;;;;;;5.93;1.20;;;;;;;27.52;17.95;99331.56;4976719;28;20444;-79
2023/11/09 11:09:47;;;;;;;6.88;1.10;;;;;;;27.24;18.28;99325.44;4976586;28;20064;-80
2023/11/09 11:12:13;;;;;;;3.17;1.00;;;;;;;27.14;17.88;99325.06;4960101;28;20474;-77
2023/11/09 11:14:41;;;;;;;3.97;1.20;;;;;;;27.02;18.21;99324.06;4960192;28;20089;-81
2023/11/09 11:17:38;;;;;;;2.38;0.85;;;;;;;26.81;18.38;99325.16;4978304;28;20097;-81
2023/11/09 11:20:28;;;;;;;3.20;1.00;;;;;;;26.50;18.50;99332.78;4993049;28;20027;-79
2023/11/09 11:23:02;;;;;;;2.92;0.98;;;;;;;26.28;18.83;99324.13;4992752;28;20466;-78
2023/11/09 11:25:37;;;;;;;1.95;0.70;;;;;;;26.12;18.54;99325.31;4993245;28;20081;-77
2023/11/09 11:28:05;;;;;;;3.95;0.90;;;;;;;25.89;18.74;99317.66;4993822;28;20395;-79
2023/11/09 11:30:36;;;;;;;;;;;;;;;25.79;19.09;99328.75;4992750;28;20018;-78
2023/11/09 11:33:05;;;;;;;1.42;0.60;;;;;;;25.55;19.44;99327.41;4993615;28;19909;-81
2023/11/09 11:35:46;;;;;;;1.80;0.52;;;;;;;25.35;19.23;99322.00;4976078;28;20423;-78
2023/11/09 11:38:15;;;;;;;3.15;0.63;;;;;;;25.21;19.71;99331.75;4959710;28;20030;-78